Time;durP1;ratioP1;P1;durP2;ratioP2;P2;SDS_P1;SDS_P2;PMS_P1;PMS_P2;Temp;Humidity;BMP_temperature;BMP_pressure;BME280_temperature;BME280_humidity;BME280_pressure;Samples;Min_cycle;Max_cycle;Signal;HPM_P1;HPM_P2
2022/10/17 00:00:05;;;;;;;25.95;13.48;;;;;;;7.43;71.62;101496.81;5108147;28;20038;-28
2022/10/17 00:02:30;;;;;;;46.53;18.98;;;;;;;7.55;70.58;101499.16;5108050;28;20083;-28
2022/10/17 00:04:56;;;;;;;41.90;17.05;;;;;;;7.44;70.17;101500.31;5107885;28;20672;-28
2022/10/17 00:07:21;;;;;;;48.65;19.35;;;;;;;7.54;69.48;101495.69;5108194;28;20030;-27
2022/10/17 00:09:47;;;;;;;23.17;10.35;;;;;;;7.35;69.88;101494.13;5107973;28;20023;-26
2022/10/17 00:12:12;;;;;;;19.20;8.85;;;;;;;7.13;71.13;101508.00;5108268;28;20030;-26
2022/10/17 00:14:38;;;;;;;13.88;8.00;;;;;;;6.98;72.25;101515.75;5107822;28;20047;-26
2022/10/17 00:17:03;;;;;;;11.90;7.22;;;;;;;6.74;72.43;101493.44;5107793;28;20028;-26
2022/10/17 00:19:29;;;;;;;12.40;6.97;;;;;;;6.46;72.52;101479.53;5089521;28;20070;-29
2022/10/17 00:21:54;;;;;;;12.65;7.28;;;;;;;6.47;73.24;101475.06;5107755;28;20024;-28
2022/10/17 00:24:20;;;;;;;11.63;7.53;;;;;;;6.66;72.39;101501.34;5107495;28;20035;-27
2022/10/17 00:26:45;;;;;;;16.15;8.10;;;;;;;6.43;73.08;101491.25;5107384;28;20019;-28
2022/10/17 00:29:11;;;;;;;10.70;7.03;;;;;;;5.92;75.90;101519.34;5107788;28;20411;-27
2022/10/17 00:31:36;;;;;;;16.02;8.40;;;;;;;6.22;74.30;101518.13;5107750;28;20039;-29
2022/10/17 00:34:01;;;;;;;14.48;7.93;;;;;;;6.56;72.30;101512.06;5107534;28;20051;-27
2022/10/17 00:36:28;;;;;;;15.88;7.93;;;;;;;6.81;71.47;101514.84;5107687;28;20028;-27
2022/10/17 00:38:57;;;;;;;10.27;6.82;;;;;;;6.65;71.49;101510.28;5107209;28;20754;-28
2022/10/17 00:41:27;;;;;;;12.85;7.28;;;;;;;6.27;73.83;101524.78;5107623;28;20515;-26
2022/10/17 00:44:01;;;;;;;12.98;7.78;;;;;;;6.71;72.15;101520.25;5101269;28;20024;-27
2022/10/17 00:46:32;;;;;;;10.40;7.13;;;;;;;6.99;70.63;101533.34;5106007;28;20027;-27
2022/10/17 00:49:01;;;;;;;11.38;7.55;;;;;;;6.85;70.06;101508.25;5106658;28;20562;-26
2022/10/17 00:51:37;;;;;;;14.30;7.28;;;;;;;6.95;70.62;101538.13;5107017;28;20035;-28
2022/10/17 00:54:03;;;;;;;12.25;8.05;;;;;;;7.02;70.80;101533.81;5107184;28;20027;-29
2022/10/17 00:56:29;;;;;;;14.73;8.25;;;;;;;6.98;70.39;101539.63;5107225;28;20028;-28
2022/10/17 00:58:55;;;;;;;10.32;7.85;;;;;;;6.99;70.02;101534.16;5106618;28;20038;-27
2022/10/17 01:01:21;;;;;;;13.75;7.78;;;;;;;6.92;70.15;101516.38;5107133;28;20019;-29
2022/10/17 01:03:46;;;;;;;11.52;7.63;;;;;;;6.97;69.80;101528.19;5106258;28;20064;-26
2022/10/17 01:06:12;;;;;;;12.40;7.93;;;;;;;6.68;71.09;101507.34;5107154;28;20064;-27
2022/10/17 01:08:37;;;;;;;14.20;8.35;;;;;;;6.82;70.78;101533.25;5106788;28;20081;-27
2022/10/17 01:11:14;;;;;;;14.27;8.55;;;;;;;6.63;71.69;101530.81;5107056;28;20023;-28
2022/10/17 01:13:57;;;;;;;16.20;8.73;;;;;;;6.84;71.23;101517.16;5107122;28;20137;-27
2022/10/17 01:16:41;;;;;;;19.92;9.75;;;;;;;6.81;70.62;101498.94;5106822;28;20500;-27
2022/10/17 01:19:29;;;;;;;21.10;11.18;;;;;;;7.01;70.68;101528.69;5105592;28;20036;-29
2022/10/17 01:22:10;;;;;;;22.02;9.85;;;;;;;6.59;71.54;101532.13;5093725;28;20058;-26
2022/10/17 01:25:14;;;;;;;25.48;12.43;;;;;;;6.34;73.90;101523.19;5087982;28;20062;-28
2022/10/17 01:27:48;;;;;;;15.50;9.15;;;;;;;6.66;71.75;101511.09;5106748;28;20023;-26
2022/10/17 01:30:28;;;;;;;16.88;10.30;;;;;;;6.38;73.17;101532.50;5106764;28;20036;-28
2022/10/17 01:33:09;;;;;;;17.55;9.40;;;;;;;6.37;72.63;101518.38;5106264;28;20058;-29
2022/10/17 01:35:43;;;;;;;13.02;8.82;;;;;;;6.29;73.12;101525.47;5106707;28;20431;-27
2022/10/17 01:38:25;;;;;;;13.85;8.35;;;;;;;6.38;71.83;101525.38;5106912;28;20134;-26
2022/10/17 01:41:08;;;;;;;15.82;8.85;;;;;;;6.40;71.75;101518.09;5106450;28;20544;-27
2022/10/17 01:43:41;;;;;;;14.82;9.18;;;;;;;6.51;70.93;101529.41;5106480;28;20024;-27
2022/10/17 01:46:30;;;;;;;16.45;9.63;;;;;;;6.49;71.16;101536.69;5106889;28;20038;-26
2022/10/17 01:49:00;;;;;;;18.00;9.20;;;;;;;5.33;73.12;101507.53;5106937;28;20058;-28
2022/10/17 01:51:32;;;;;;;19.52;10.65;;;;;;;5.75;70.58;101517.56;5106885;28;20126;-27
2022/10/17 01:54:08;;;;;;;24.30;11.30;;;;;;;5.86;71.83;101549.06;5106552;28;20036;-31
2022/10/17 01:56:35;;;;;;;28.52;12.90;;;;;;;6.08;71.90;101539.03;5088038;28;20034;-30
2022/10/17 01:59:11;;;;;;;24.27;11.50;;;;;;;6.07;71.70;101547.97;5106725;28;20102;-27
2022/10/17 02:01:40;;;;;;;38.35;15.20;;;;;;;6.43;70.13;101549.56;5106557;28;20104;-27
2022/10/17 02:04:08;;;;;;;31.65;14.57;;;;;;;6.13;70.31;101552.66;5106530;28;20031;-27
2022/10/17 02:06:35;;;;;;;25.17;13.07;;;;;;;5.77;71.91;101547.34;5106063;28;20027;-30
2022/10/17 02:09:01;;;;;;;25.90;12.75;;;;;;;5.69;72.73;101556.03;5106256;28;20061;-27
2022/10/17 02:11:27;;;;;;;28.77;13.02;;;;;;;5.67;72.96;101559.81;5106420;28;20027;-31
2022/10/17 02:14:17;;;;;;;46.42;19.38;;;;;;;6.02;72.21;101551.91;5106547;28;20031;-29
2022/10/17 02:17:20;;;;;;;26.20;13.15;;;;;;;6.03;71.76;101552.75;5090295;28;20036;-28
2022/10/17 02:19:45;;;;;;;19.10;10.07;;;;;;;6.01;71.81;101557.38;5109859;28;20027;-28
2022/10/17 02:22:13;;;;;;;15.77;8.23;;;;;;;5.95;71.78;101558.81;5109972;28;20016;-27
2022/10/17 02:24:39;;;;;;;13.57;7.63;;;;;;;5.52;74.12;101560.34;5109572;28;20031;-28
2022/10/17 02:27:10;;;;;;;16.42;9.70;;;;;;;5.86;72.60;101559.66;5109905;28;20589;-28
2022/10/17 02:29:43;;;;;;;15.30;8.95;;;;;;;6.02;71.59;101559.84;5109825;28;20067;-28
2022/10/17 02:32:32;;;;;;;17.23;8.65;;;;;;;5.95;71.52;101556.16;5091477;28;20112;-27
2022/10/17 02:35:00;;;;;;;15.95;7.93;;;;;;;5.88;72.59;101555.06;5090182;28;20051;-27
2022/10/17 02:37:27;;;;;;;;;;;;;;;5.85;71.56;101552.72;5091726;28;20028;-28
2022/10/17 02:39:56;;;;;;;19.95;10.20;;;;;;;5.41;73.70;101542.00;5091017;28;19916;-27
2022/10/17 02:42:23;;;;;;;35.72;15.65;;;;;;;5.03;74.89;101541.25;5092039;28;20024;-29
2022/10/17 02:44:50;;;;;;;35.63;14.45;;;;;;;5.00;74.73;101560.03;5109175;28;20058;-28
2022/10/17 02:47:24;;;;;;;23.05;11.27;;;;;;;5.01;73.54;101569.66;5109363;28;20114;-32
2022/10/17 02:49:51;;;;;;;19.15;9.77;;;;;;;5.04;72.42;101572.00;5109107;28;20027;-27
2022/10/17 02:52:29;;;;;;;16.52;9.48;;;;;;;4.67;73.28;101582.56;5090626;28;20027;-26
2022/10/17 02:55:21;;;;;;;14.90;8.73;;;;;;;4.40;74.13;101589.41;5109073;28;20536;-27
2022/10/17 02:57:51;;;;;;;17.13;7.97;;;;;;;4.85;74.23;101587.94;5105857;28;20587;-27
2022/10/17 03:00:19;;;;;;;17.17;9.38;;;;;;;4.97;74.79;101570.91;5109144;28;20040;-25
2022/10/17 03:02:49;;;;;;;18.20;9.18;;;;;;;5.34;74.02;101575.34;5108919;28;20031;-27
2022/10/17 03:05:19;;;;;;;16.13;9.30;;;;;;;5.29;72.87;101549.34;5109339;28;20066;-28
2022/10/17 03:07:44;;;;;;;14.15;8.15;;;;;;;5.27;73.60;101568.97;5109080;28;20027;-27
2022/10/17 03:10:10;;;;;;;13.15;7.95;;;;;;;5.14;72.92;101551.63;5108824;28;20030;-29
2022/10/17 03:12:36;;;;;;;11.70;7.25;;;;;;;4.94;73.72;101576.47;5090294;28;20031;-27
2022/10/17 03:15:02;;;;;;;13.88;7.63;;;;;;;5.03;72.41;101565.88;5108823;28;20035;-27
2022/10/17 03:17:27;;;;;;;16.65;8.98;;;;;;;5.09;71.28;101566.25;5109128;28;20103;-28
2022/10/17 03:19:53;;;;;;;13.93;8.00;;;;;;;4.61;73.69;101581.31;5090692;28;20037;-28
2022/10/17 03:22:18;;;;;;;12.98;7.15;;;;;;;4.23;74.83;101596.25;5108857;28;20024;-27
2022/10/17 03:24:44;;;;;;;13.13;7.70;;;;;;;3.96;72.67;101600.41;5108666;28;20075;-28
2022/10/17 03:27:10;;;;;;;17.52;9.15;;;;;;;3.96;71.87;101581.06;5108306;28;20023;-30
2022/10/17 03:29:35;;;;;;;15.20;8.70;;;;;;;4.35;72.19;101588.97;5096938;28;20123;-31
2022/10/17 03:32:01;;;;;;;12.23;8.10;;;;;;;4.54;71.84;101588.16;5087442;28;20123;-27
2022/10/17 03:34:26;;;;;;;14.65;8.15;;;;;;;4.53;72.24;101600.50;5069892;28;20028;-29
2022/10/17 03:36:51;;;;;;;15.13;7.75;;;;;;;4.23;73.67;101599.72;5088414;28;20039;-31
2022/10/17 03:39:17;;;;;;;15.93;8.07;;;;;;;3.97;73.68;101586.22;5087912;28;20054;-27
2022/10/17 03:41:42;;;;;;;16.77;8.00;;;;;;;4.31;73.65;101611.38;5088078;28;20411;-27
2022/10/17 03:44:07;;;;;;;18.48;8.65;;;;;;;4.46;72.45;101577.47;5087921;28;20038;-27
2022/10/17 03:46:33;;;;;;;14.35;7.25;;;;;;;4.57;72.86;101593.13;5087655;28;20032;-35
2022/10/17 03:48:58;;;;;;;15.35;7.93;;;;;;;4.87;72.00;101607.13;5087922;28;20036;-27
2022/10/17 03:51:24;;;;;;;16.48;8.68;;;;;;;4.46;74.08;101609.16;5088279;28;20063;-27
2022/10/17 03:53:49;;;;;;;24.73;13.45;;;;;;;4.62;74.29;101612.06;5087800;28;20819;-28
2022/10/17 03:56:23;;;;;;;23.92;11.40;;;;;;;4.41;75.52;101604.28;5087888;28;20047;-26
2022/10/17 03:58:48;;;;;;;20.95;11.07;;;;;;;4.47;74.55;101594.97;5087312;28;20114;-27
2022/10/17 04:01:15;;;;;;;54.65;21.52;;;;;;;4.41;74.91;101599.84;5087907;28;20236;-26
2022/10/17 04:03:41;;;;;;;30.15;13.27;;;;;;;3.83;76.62;101597.19;5069515;28;20813;-28
2022/10/17 04:06:10;;;;;;;13.85;7.43;;;;;;;3.16;73.30;101612.69;5087804;28;20051;-27
2022/10/17 04:08:36;;;;;;;15.63;8.80;;;;;;;3.45;72.38;101617.22;5087317;28;20426;-25
2022/10/17 04:11:03;;;;;;;15.90;8.93;;;;;;;3.60;72.85;101623.81;5087550;28;20028;-29
2022/10/17 04:13:30;;;;;;;12.25;8.35;;;;;;;3.46;73.52;101604.91;5087367;28;20103;-26
2022/10/17 04:16:01;;;;;;;12.95;8.50;;;;;;;3.50;74.44;101616.84;5087463;28;20035;-27
2022/10/17 04:18:27;;;;;;;12.38;8.40;;;;;;;3.53;75.79;101632.38;5068988;28;20982;-28
2022/10/17 04:20:52;;;;;;;14.02;8.18;;;;;;;2.79;76.70;101609.72;5085528;28;20039;-28
2022/10/17 04:23:19;;;;;;;15.52;9.38;;;;;;;3.29;76.20;101635.34;5087296;28;20119;-28
2022/10/17 04:25:44;;;;;;;14.73;9.32;;;;;;;3.21;75.96;101607.84;5087048;28;20095;-27
2022/10/17 04:28:10;;;;;;;14.55;8.80;;;;;;;3.22;76.31;101608.69;5086752;28;20114;-27
2022/10/17 04:30:35;;;;;;;15.32;8.80;;;;;;;3.24;75.54;101601.47;5086905;28;20034;-31
2022/10/17 04:33:00;;;;;;;16.60;9.32;;;;;;;3.14;76.42;101604.06;5086859;28;20487;-27
2022/10/17 04:35:26;;;;;;;18.98;10.82;;;;;;;3.59;75.99;101637.94;5068772;28;20658;-27
2022/10/17 04:37:51;;;;;;;17.85;11.45;;;;;;;3.90;75.64;101640.53;5084578;28;20083;-30
2022/10/17 04:40:17;;;;;;;21.15;12.38;;;;;;;3.71;76.86;101649.25;5086987;28;20121;-27
2022/10/17 04:42:42;;;;;;;15.98;10.05;;;;;;;3.34;75.84;101654.25;5086990;28;20169;-27
2022/10/17 04:45:08;;;;;;;14.63;10.13;;;;;;;3.54;75.29;101634.91;5087235;28;20024;-27
2022/10/17 04:47:34;;;;;;;19.30;10.63;;;;;;;3.88;76.13;101657.47;5087176;28;20024;-26
2022/10/17 04:49:59;;;;;;;18.40;12.55;;;;;;;3.62;78.18;101627.16;5086978;28;20024;-26
2022/10/17 04:52:24;;;;;;;17.92;11.68;;;;;;;3.69;79.30;101667.00;5068759;28;20032;-27
2022/10/17 04:54:50;;;;;;;19.98;11.45;;;;;;;4.02;77.50;101667.63;5086403;28;20182;-27
2022/10/17 04:57:17;;;;;;;25.98;12.35;;;;;;;4.28;75.97;101670.59;5086789;28;20043;-27
2022/10/17 04:59:42;;;;;;;20.13;12.27;;;;;;;4.39;75.87;101673.13;5068572;28;20032;-28
2022/10/17 05:02:08;;;;;;;21.10;12.25;;;;;;;4.22;76.51;101631.53;5087282;28;20032;-26
2022/10/17 05:04:33;;;;;;;19.33;12.27;;;;;;;4.67;75.61;101667.94;5068148;28;20547;-30
2022/10/17 05:06:59;;;;;;;27.88;12.18;;;;;;;4.79;75.57;101685.31;5068584;28;20031;-26
2022/10/17 05:09:24;;;;;;;24.40;12.80;;;;;;;4.94;75.64;101692.81;5086669;28;20025;-27
2022/10/17 05:11:50;;;;;;;24.80;12.82;;;;;;;4.86;76.59;101695.31;5086513;28;20036;-27
2022/10/17 05:14:15;;;;;;;20.52;12.02;;;;;;;4.60;77.70;101674.78;5086657;28;20028;-29
2022/10/17 05:16:40;;;;;;;27.50;13.32;;;;;;;5.08;76.68;101705.56;5086387;28;20416;-27
2022/10/17 05:19:06;;;;;;;26.08;13.07;;;;;;;5.38;76.58;101701.06;5086842;28;20031;-27
2022/10/17 05:21:32;;;;;;;27.40;14.57;;;;;;;5.40;75.36;101683.22;5086614;28;20040;-28
2022/10/17 05:23:58;;;;;;;33.53;13.68;;;;;;;5.59;75.42;101683.13;5068338;28;20088;-29
2022/10/17 05:26:24;;;;;;;27.27;13.40;;;;;;;5.61;75.83;101685.63;5086390;28;20400;-30
2022/10/17 05:28:51;;;;;;;22.40;12.40;;;;;;;5.49;76.69;101692.91;5067919;28;20093;-27
2022/10/17 05:31:16;;;;;;;21.73;13.32;;;;;;;5.83;75.88;101708.25;5068580;28;20044;-27
2022/10/17 05:33:42;;;;;;;25.10;15.38;;;;;;;6.10;74.96;101723.31;5086637;28;20036;-28
2022/10/17 05:36:08;;;;;;;29.83;17.35;;;;;;;6.38;74.03;101721.47;5086608;28;20044;-31
2022/10/17 05:38:33;;;;;;;36.58;20.45;;;;;;;6.30;74.18;101721.38;5086322;28;20052;-31
2022/10/17 05:41:00;;;;;;;29.35;17.50;;;;;;;6.47;74.36;101713.59;5086640;28;20028;-29
2022/10/17 05:43:27;;;;;;;28.35;17.02;;;;;;;6.61;73.20;101710.41;5086597;28;20032;-27
2022/10/17 05:45:53;;;;;;;25.17;15.68;;;;;;;6.61;73.87;101731.59;5086586;28;20032;-29
2022/10/17 05:48:19;;;;;;;23.88;13.95;;;;;;;6.86;73.36;101734.47;5086271;28;20165;-26
2022/10/17 05:50:44;;;;;;;20.83;13.23;;;;;;;7.06;72.90;101735.13;5089157;28;20111;-28
2022/10/17 05:53:10;;;;;;;20.85;14.07;;;;;;;6.91;73.44;101716.28;5090037;28;20038;-28
2022/10/17 05:55:35;;;;;;;22.20;14.35;;;;;;;6.90;74.28;101752.56;5089740;28;20027;-30
2022/10/17 05:58:01;;;;;;;29.70;18.33;;;;;;;7.01;74.00;101748.84;5090330;28;20040;-28
2022/10/17 06:00:27;;;;;;;31.75;16.92;;;;;;;6.98;73.55;101722.63;5089939;28;20054;-27
2022/10/17 06:02:52;;;;;;;34.97;18.98;;;;;;;7.56;80.48;101748.56;5089861;28;20067;-31
2022/10/17 06:05:20;;;;;;;25.42;15.57;;;;;;;7.48;73.82;101748.50;5089853;28;20045;-28
2022/10/17 06:07:45;;;;;;;28.20;16.98;;;;;;;7.40;73.72;101729.88;5090046;28;20063;-28
2022/10/17 06:10:13;;;;;;;33.00;17.35;;;;;;;7.66;75.65;101751.06;5089705;28;20058;-28
2022/10/17 06:12:39;;;;;;;29.35;13.70;;;;;;;7.78;74.33;101739.19;5089854;28;20032;-27
2022/10/17 06:15:05;;;;;;;17.70;11.90;;;;;;;7.74;73.63;101744.97;5089958;28;20028;-28
2022/10/17 06:17:30;;;;;;;21.50;14.13;;;;;;;8.32;76.45;101733.56;5089698;28;20031;-29
2022/10/17 06:19:56;;;;;;;19.98;12.80;;;;;;;8.20;72.82;101748.16;5089718;28;20484;-27
2022/10/17 06:22:22;;;;;;;24.50;14.73;;;;;;;8.14;74.38;101751.47;5089364;28;20028;-29
2022/10/17 06:24:47;;;;;;;21.50;12.00;;;;;;;8.50;75.05;101741.44;5087610;28;20500;-30
2022/10/17 06:27:13;;;;;;;24.40;12.25;;;;;;;8.55;73.26;101738.28;5089457;28;20050;-29
2022/10/17 06:29:39;;;;;;;18.55;11.93;;;;;;;9.03;72.72;101756.09;5071284;28;20047;-28
2022/10/17 06:32:05;;;;;;;19.45;12.50;;;;;;;8.95;73.38;101769.41;5070023;28;20705;-29
2022/10/17 06:34:31;;;;;;;18.50;12.38;;;;;;;9.65;70.96;101768.78;5088388;28;20369;-28
2022/10/17 06:36:59;;;;;;;15.75;11.07;;;;;;;9.57;69.38;101773.31;5088447;28;20514;-26
2022/10/17 06:39:25;;;;;;;;;;;;;;;9.85;72.83;101779.06;5089347;28;20498;-27
2022/10/17 06:41:51;;;;;;;18.27;11.15;;;;;;;9.93;71.80;101765.72;5071297;28;19951;-28
2022/10/17 06:44:16;;;;;;;22.17;13.25;;;;;;;10.21;70.53;101778.56;5087819;28;20116;-29
2022/10/17 06:46:42;;;;;;;18.55;12.40;;;;;;;9.97;67.56;101783.03;5070929;28;20408;-28
2022/10/17 06:49:09;;;;;;;20.05;12.20;;;;;;;9.58;68.40;101751.00;5089073;28;20043;-26
2022/10/17 06:51:35;;;;;;;21.23;13.30;;;;;;;10.06;68.11;101776.66;5089135;28;20032;-28
2022/10/17 06:54:02;;;;;;;19.73;13.52;;;;;;;9.99;68.38;101772.16;5088787;28;20020;-27
2022/10/17 06:56:27;;;;;;;18.85;12.90;;;;;;;9.80;68.37;101768.91;5089308;28;20028;-28
2022/10/17 06:58:53;;;;;;;17.42;12.90;;;;;;;10.32;69.20;101790.72;5087424;28;20208;-27
2022/10/17 07:01:19;;;;;;;19.42;12.68;;;;;;;10.62;68.14;101786.38;5088059;28;20024;-31
2022/10/17 07:03:47;;;;;;;19.75;13.48;;;;;;;10.37;67.47;101783.03;5088988;28;20107;-32
2022/10/17 07:06:13;;;;;;;16.85;11.57;;;;;;;10.42;67.49;101789.50;5088751;28;20507;-27
2022/10/17 07:08:42;;;;;;;18.92;12.80;;;;;;;10.48;69.25;101787.13;5088449;28;20036;-29
2022/10/17 07:11:10;;;;;;;19.83;12.38;;;;;;;10.77;66.22;101768.59;5088844;28;20024;-27
2022/10/17 07:13:35;;;;;;;19.75;12.75;;;;;;;11.12;70.29;101771.66;5088813;28;20035;-29
2022/10/17 07:16:01;;;;;;;20.23;12.38;;;;;;;11.36;65.22;101786.63;5088594;28;20071;-28
2022/10/17 07:18:26;;;;;;;19.55;12.43;;;;;;;11.46;64.81;101786.34;5088681;28;20408;-27
2022/10/17 07:20:53;;;;;;;17.98;11.80;;;;;;;11.31;64.41;101774.81;5069823;28;20028;-26
2022/10/17 07:23:19;;;;;;;16.00;11.68;;;;;;;11.42;64.18;101798.41;5070249;28;20155;-27
2022/10/17 07:25:44;;;;;;;16.00;11.20;;;;;;;11.38;66.49;101797.09;5088496;28;20107;-29
2022/10/17 07:28:10;;;;;;;15.68;10.63;;;;;;;11.91;63.87;101808.63;5070065;28;20070;-27
2022/10/17 07:30:35;;;;;;;18.67;11.98;;;;;;;11.91;65.93;101799.75;5088184;28;20032;-29
2022/10/17 07:33:01;;;;;;;17.00;11.60;;;;;;;12.34;63.90;101800.72;5088202;28;20024;-27
2022/10/17 07:35:26;;;;;;;17.50;11.15;;;;;;;12.62;62.33;101802.69;5069638;28;20047;-30
2022/10/17 07:37:52;;;;;;;16.48;11.63;;;;;;;12.38;62.46;101810.03;5086260;28;20141;-26
2022/10/17 07:40:17;;;;;;;17.98;11.07;;;;;;;12.36;62.53;101782.66;5106489;28;20040;-29
2022/10/17 07:42:42;;;;;;;13.00;10.90;;;;;;;12.35;61.39;101782.84;5097964;28;20085;-28
2022/10/17 07:45:08;;;;;;;15.15;10.07;;;;;;;12.28;61.93;101793.47;5100758;28;20035;-27
2022/10/17 07:47:34;;;;;;;15.45;10.23;;;;;;;12.34;62.36;101787.34;5097002;28;20046;-28
2022/10/17 07:50:01;;;;;;;15.10;9.88;;;;;;;12.75;60.40;101794.78;5087821;28;20488;-31
2022/10/17 07:52:26;;;;;;;19.38;10.68;;;;;;;12.96;60.21;101796.63;5091922;28;20172;-28
2022/10/17 07:54:52;;;;;;;13.57;9.90;;;;;;;13.02;59.70;101792.38;5097907;28;20552;-29
2022/10/17 07:57:17;;;;;;;15.13;9.93;;;;;;;13.23;58.34;101786.13;5096388;28;20043;-28
2022/10/17 07:59:42;;;;;;;18.70;9.52;;;;;;;13.33;58.47;101770.59;5096654;28;20032;-27
2022/10/17 08:02:22;;;;;;;13.20;8.98;;;;;;;13.72;57.59;101795.16;5099963;28;20042;-29
2022/10/17 08:04:47;;;;;;;14.27;8.50;;;;;;;14.00;56.83;101785.22;5107576;28;20110;-28
2022/10/17 08:07:14;;;;;;;14.68;8.48;;;;;;;14.22;55.72;101791.28;5096439;28;20039;-28
2022/10/17 08:09:40;;;;;;;12.98;8.95;;;;;;;14.36;56.01;101780.59;5087363;28;20032;-29
2022/10/17 08:12:06;;;;;;;11.77;8.68;;;;;;;14.66;54.51;101762.31;5087648;28;20739;-27
2022/10/17 08:14:31;;;;;;;12.52;8.73;;;;;;;14.93;54.65;101765.03;5097844;28;20448;-30
2022/10/17 08:16:57;;;;;;;14.05;8.30;;;;;;;14.75;53.53;101746.81;5104002;28;20039;-29
2022/10/17 08:19:23;;;;;;;13.23;8.52;;;;;;;14.70;53.41;101771.63;5082574;28;20431;-29
2022/10/17 08:21:49;;;;;;;12.25;7.55;;;;;;;15.04;52.55;101775.16;5095069;28;20137;-28
2022/10/17 08:24:14;;;;;;;15.55;10.05;;;;;;;15.15;52.83;101776.41;5094921;28;20076;-31
2022/10/17 08:26:40;;;;;;;14.35;9.30;;;;;;;15.36;52.34;101767.28;5096960;28;20023;-27
2022/10/17 08:29:05;;;;;;;12.90;8.40;;;;;;;15.09;51.90;101753.88;5081467;28;20020;-29
2022/10/17 08:31:31;;;;;;;10.40;7.43;;;;;;;15.15;51.89;101774.53;5078082;28;20484;-27
2022/10/17 08:33:56;;;;;;;11.70;8.02;;;;;;;15.57;51.72;101782.31;5085025;28;20111;-28
2022/10/17 08:36:22;;;;;;;13.80;8.65;;;;;;;16.01;50.35;101784.31;5096910;28;20035;-29
2022/10/17 08:38:47;;;;;;;9.77;7.65;;;;;;;15.79;49.36;101769.47;5078549;28;20051;-29
2022/10/17 08:41:19;;;;;;;11.98;7.65;;;;;;;15.81;49.47;101792.47;5095150;28;20035;-30
2022/10/17 08:44:12;;;;;;;14.35;7.45;;;;;;;16.10;48.67;101782.22;5095777;28;20044;-28
2022/10/17 08:46:41;;;;;;;10.23;7.45;;;;;;;16.26;47.68;101765.59;5096552;28;20032;-32
2022/10/17 08:49:18;;;;;;;14.82;8.52;;;;;;;16.48;48.30;101774.13;5099068;28;20035;-28
2022/10/17 08:51:55;;;;;;;9.97;7.37;;;;;;;16.64;47.60;101771.97;5098157;28;20085;-30
2022/10/17 08:54:42;;;;;;;15.85;7.68;;;;;;;16.69;47.55;101766.75;5098495;28;20266;-31
2022/10/17 08:57:15;;;;;;;13.40;6.85;;;;;;;16.87;46.51;101777.63;5097790;28;20957;-29
2022/10/17 08:59:42;;;;;;;12.07;7.45;;;;;;;16.97;45.77;101779.03;5078729;28;20503;-28
2022/10/17 09:02:41;;;;;;;9.63;6.97;;;;;;;17.29;43.96;101779.78;5094326;28;20028;-28
2022/10/17 09:05:33;;;;;;;9.05;6.05;;;;;;;17.30;43.73;101759.03;5095194;28;20048;-29
2022/10/17 09:08:11;;;;;;;9.88;6.20;;;;;;;17.00;43.85;101776.72;5100704;28;20031;-27
2022/10/17 09:10:45;;;;;;;9.30;4.82;;;;;;;17.36;41.97;101763.53;5091751;28;20031;-30
2022/10/17 09:13:19;;;;;;;8.10;4.13;;;;;;;17.67;38.99;101776.91;5086387;28;20032;-27
2022/10/17 09:16:03;;;;;;;8.55;5.03;;;;;;;17.82;40.67;101764.94;5084333;28;20048;-28
2022/10/17 09:18:39;;;;;;;6.85;4.93;;;;;;;18.08;40.06;101758.38;5086833;28;20067;-28
2022/10/17 09:21:14;;;;;;;11.57;4.90;;;;;;;18.27;41.16;101759.19;5086019;28;20031;-30
2022/10/17 09:23:53;;;;;;;11.00;5.47;;;;;;;18.25;39.87;101745.09;5090602;28;20043;-30
2022/10/17 09:26:19;;;;;;;7.65;4.60;;;;;;;18.20;38.66;101745.75;5082193;28;20070;-31
2022/10/17 09:28:50;;;;;;;9.35;4.57;;;;;;;18.30;39.19;101734.41;5090181;28;20086;-31
2022/10/17 09:31:25;;;;;;;8.23;4.90;;;;;;;18.75;39.91;101755.56;5091024;28;20047;-30
2022/10/17 09:33:54;;;;;;;6.53;3.83;;;;;;;17.93;39.35;101737.19;5102266;28;20034;-27
2022/10/17 09:36:33;;;;;;;7.30;3.50;;;;;;;18.68;39.82;101733.25;5109815;28;20092;-30
2022/10/17 09:39:05;;;;;;;6.63;4.00;;;;;;;18.73;40.16;101735.25;5090742;28;20044;-29
2022/10/17 09:41:43;;;;;;;7.68;4.00;;;;;;;19.31;39.36;101739.91;5110906;28;20085;-30
2022/10/17 09:44:15;;;;;;;6.97;3.60;;;;;;;19.50;38.01;101731.63;5110629;28;20042;-31
2022/10/17 09:46:49;;;;;;;8.43;4.28;;;;;;;19.65;38.40;101746.28;5110484;28;20054;-27
2022/10/17 09:49:27;;;;;;;7.25;3.85;;;;;;;19.73;39.24;101738.91;5110705;28;20045;-29
2022/10/17 09:51:52;;;;;;;8.30;3.70;;;;;;;19.89;38.04;101719.22;5109187;28;20101;-29
2022/10/17 09:54:27;;;;;;;7.38;3.60;;;;;;;19.90;38.94;101734.41;5110355;28;20451;-29
2022/10/17 09:57:20;;;;;;;6.50;2.70;;;;;;;19.91;38.99;101730.63;5091843;28;20023;-28
2022/10/17 09:59:58;;;;;;;6.80;3.03;;;;;;;19.89;37.57;101713.78;5106910;28;20050;-31
2022/10/17 10:02:25;;;;;;;5.90;3.22;;;;;;;20.18;37.92;101719.22;5110284;28;20039;-30
2022/10/17 10:04:53;;;;;;;6.72;3.40;;;;;;;20.30;37.85;101725.38;5110122;28;20028;-28
2022/10/17 10:07:20;;;;;;;5.32;3.15;;;;;;;20.37;37.19;101717.09;5110242;28;20038;-29
2022/10/17 10:09:48;;;;;;;7.63;3.53;;;;;;;20.32;36.27;101720.56;5109861;28;20030;-29
2022/10/17 10:12:18;;;;;;;;;;;;;;;20.27;37.39;101709.63;5110816;28;20070;-29
2022/10/17 10:14:45;;;;;;;11.43;5.43;;;;;;;20.53;37.09;101704.66;5109963;28;19955;-29
2022/10/17 10:17:29;;;;;;;12.45;5.65;;;;;;;20.75;37.91;101719.13;5110079;28;20054;-28
2022/10/17 10:19:54;;;;;;;14.50;5.97;;;;;;;21.15;35.61;101707.28;5109803;28;20027;-31
2022/10/17 10:22:24;;;;;;;17.20;7.82;;;;;;;21.58;35.20;101711.13;5109823;28;20035;-29
2022/10/17 10:25:14;;;;;;;9.30;4.57;;;;;;;21.78;34.37;101693.44;5091004;28;20556;-33
2022/10/17 10:27:42;;;;;;;8.27;4.63;;;;;;;22.14;34.12;101696.53;5109805;28;20434;-31
2022/10/17 10:30:23;;;;;;;9.73;4.53;;;;;;;22.00;35.22;101705.09;5109772;28;20024;-30
2022/10/17 10:32:49;;;;;;;8.70;4.70;;;;;;;22.19;34.22;101688.41;5109344;28;20089;-30
2022/10/17 10:35:33;;;;;;;9.48;4.90;;;;;;;21.94;34.87;101681.66;5109369;28;20058;-29
2022/10/17 10:38:02;;;;;;;8.40;4.63;;;;;;;21.44;35.33;101688.97;5087016;28;20083;-29
2022/10/17 10:40:43;;;;;;;7.15;4.00;;;;;;;21.90;35.57;101691.38;5089231;28;20063;-28
2022/10/17 10:43:38;;;;;;;9.88;5.65;;;;;;;21.75;34.69;101688.53;5087259;28;20032;-31
2022/10/17 10:46:22;;;;;;;11.85;5.05;;;;;;;21.88;34.06;101690.81;5087114;28;20036;-29
2022/10/17 10:48:57;;;;;;;8.00;3.85;;;;;;;21.47;34.77;101676.78;5088680;28;20034;-29
2022/10/17 10:51:37;;;;;;;7.95;3.88;;;;;;;21.48;34.92;101673.00;5088738;28;20513;-28
2022/10/17 10:54:07;;;;;;;9.40;4.57;;;;;;;21.97;34.39;101672.19;5089015;28;20040;-28
2022/10/17 10:56:38;;;;;;;7.13;3.85;;;;;;;22.22;34.27;101664.28;5088766;28;20039;-29
2022/10/17 10:59:09;;;;;;;9.85;3.72;;;;;;;22.24;33.70;101672.22;5088942;28;20039;-27
2022/10/17 11:01:43;;;;;;;9.10;3.70;;;;;;;22.24;34.93;101669.50;5088816;28;20039;-28
2022/10/17 11:04:39;;;;;;;6.57;3.40;;;;;;;22.21;34.12;101664.53;5088985;28;20042;-29
2022/10/17 11:07:10;;;;;;;6.97;3.90;;;;;;;22.99;33.36;101669.50;5088812;28;20032;-30
2022/10/17 11:09:59;;;;;;;8.73;3.63;;;;;;;23.19;33.37;101653.31;5088775;28;20132;-28
2022/10/17 11:12:52;;;;;;;7.15;3.47;;;;;;;23.18;31.18;101662.56;5087162;28;20078;-29
2022/10/17 11:15:50;;;;;;;6.30;3.10;;;;;;;23.16;30.94;101648.41;5081835;28;20470;-31
2022/10/17 11:18:44;;;;;;;5.65;2.83;;;;;;;23.95;30.10;101668.31;5076934;28;20508;-29
2022/10/17 11:21:23;;;;;;;4.90;2.80;;;;;;;24.06;29.54;101653.59;5084417;28;20051;-34
2022/10/17 11:24:09;;;;;;;10.25;2.85;;;;;;;24.03;29.87;101662.31;5086880;28;20028;-29
2022/10/17 11:26:43;;;;;;;4.10;2.50;;;;;;;23.91;29.43;101639.97;5087988;28;20039;-30
2022/10/17 11:29:11;;;;;;;4.82;2.78;;;;;;;24.27;29.63;101649.00;5088118;28;20285;-28
2022/10/17 11:31:46;;;;;;;26.08;4.03;;;;;;;24.15;29.66;101633.97;5103819;28;20373;-31
2022/10/17 11:34:36;;;;;;;6.40;2.80;;;;;;;23.61;30.34;101652.38;5088349;28;20032;-28